Terminal Aerodrome Forecast
Issued by NWS Atlanta, GA

Home | Current Version | Previous Version | Text Only | Print | Product List | Glossary On
Versions: 1 2 3 4 5 6 7 8 9 10 11 12 13 14 15 16 17 18 19 20 21 22 23 24 25 26 27 28 29 30 31 32 33 34 35 36 37
000
FTUS42 KFFC 221100
TAFAHN
TAF
KAHN 221137Z 2212/2312 33004KT P6SM VCSH BKN060
     FM221600 03006KT P6SM SCT060 SCT150
     FM222300 04008KT P6SM FEW060
     FM230400 02006KT P6SM BKN050=

USA.gov is the U.S. government's official web portal to all federal, state and local government web resources and services.